createdAt,value
2023-02-24T00:00:00.462Z,90
2023-02-24T00:16:02.728Z,90
2023-02-24T00:31:04.703Z,90
2023-02-24T00:46:01.471Z,90
2023-02-24T01:00:03.283Z,91
2023-02-24T01:16:00.641Z,91
2023-02-24T01:31:02.954Z,91
2023-02-24T01:46:04.820Z,92
2023-02-24T02:00:01.607Z,93
2023-02-24T02:16:03.779Z,93
2023-02-24T02:31:00.683Z,93
2023-02-24T02:46:02.767Z,93
2023-02-24T03:00:04.850Z,93
2023-02-24T03:16:01.878Z,93
2023-02-24T03:31:04.023Z,93
2023-02-24T03:46:00.946Z,93
2023-02-24T04:00:02.686Z,93
2023-02-24T04:16:00.040Z,93
2023-02-24T04:31:01.970Z,93
2023-02-24T04:46:13.889Z,93
2023-02-24T05:00:03.349Z,93
2023-02-24T05:16:03.367Z,93
2023-02-24T05:31:00.543Z,93
2023-02-24T05:46:02.522Z,94
2023-02-24T06:00:04.648Z,94
2023-02-24T06:16:01.761Z,94
2023-02-24T06:31:03.882Z,94
2023-02-24T06:46:00.799Z,94
2023-02-24T07:00:02.657Z,94
2023-02-24T07:15:59.928Z,94
2023-02-24T07:31:02.056Z,94
2023-02-24T07:46:05.315Z,95
2023-02-24T08:00:00.839Z,95
2023-02-24T08:16:05.210Z,94
2023-02-24T08:31:04.797Z,94
2023-02-24T08:46:01.897Z,92
2023-02-24T09:00:03.950Z,89
2023-02-24T09:16:01.312Z,88
2023-02-24T09:31:03.360Z,82
2023-02-24T09:46:00.689Z,75
2023-02-24T10:00:02.486Z,74
2023-02-24T10:16:05.921Z,73
2023-02-24T10:31:02.061Z,71
2023-02-24T10:46:03.883Z,69
2023-02-24T11:00:00.611Z,67
2023-02-24T11:16:02.841Z,66
2023-02-24T11:30:59.823Z,65
2023-02-24T11:46:01.892Z,63
2023-02-24T12:00:03.829Z,59
2023-02-24T12:16:01.180Z,57
2023-02-24T12:31:03.528Z,54
2023-02-24T12:46:00.284Z,53
2023-02-24T13:00:02.233Z,53
2023-02-24T13:16:04.199Z,52
2023-02-24T13:31:01.540Z,53
2023-02-24T13:46:03.518Z,53
2023-02-24T14:00:00.384Z,54
2023-02-24T14:16:02.824Z,53
2023-02-24T14:31:00.037Z,54
2023-02-24T14:46:02.206Z,53
2023-02-24T15:00:03.999Z,53
2023-02-24T15:16:01.090Z,54
2023-02-24T15:31:03.394Z,55
2023-02-24T15:46:00.351Z,56
2023-02-24T16:00:02.467Z,57
2023-02-24T16:16:04.241Z,56
2023-02-24T16:31:01.352Z,56
2023-02-24T16:46:03.324Z,58
2023-02-24T17:00:00.237Z,59
2023-02-24T17:16:02.445Z,61
2023-02-24T17:31:04.692Z,63
2023-02-24T17:46:01.718Z,65
2023-02-24T18:00:03.375Z,68
2023-02-24T18:16:00.533Z,68
2023-02-24T18:31:02.690Z,68
2023-02-24T18:45:59.708Z,66
2023-02-24T19:00:01.568Z,65
2023-02-24T19:16:03.904Z,66
2023-02-24T19:31:00.847Z,65
2023-02-24T19:46:02.906Z,64
2023-02-24T19:59:59.799Z,64
2023-02-24T20:16:01.864Z,65
2023-02-24T20:31:04.045Z,66
2023-02-24T20:46:01.137Z,67
2023-02-24T21:00:03.949Z,67
2023-02-24T21:16:00.065Z,67
2023-02-24T21:31:02.154Z,67
2023-02-24T21:46:04.130Z,68
2023-02-24T22:00:00.921Z,69
2023-02-24T22:16:03.356Z,69
2023-02-24T22:31:00.402Z,71
2023-02-24T22:46:02.483Z,71
2023-02-24T23:00:04.619Z,73
2023-02-24T23:16:01.960Z,74
2023-02-24T23:31:04.060Z,73
2023-02-24T23:46:00.918Z,74
